Falkirk, North Dakota
Current Conditions -  °F | °C
As of 9:55 PM on Friday 24 Oct 2014 (Local Time) from KHZE Reporting Station
Clear Clear  
Wind Chill: 42°   Ceiling: Unl
Heat Index: 46°   Visibility: 10mi
Dew Point: 28°   Wind: 8mph
Humidity: 50%   Direction: 230°SW
Pressure: 30.03"   Gusts: NA
Location:  47.3716°N, 100.97°W
Report Text: KHZE 250255Z AUTO 23007KT 10SM CLR 08/M02 A3003 RMK AO2
Loading
Personal Weather Stations






























Interactive Weather Map
Tropical Storm Tracking
New forecast layout! Learn more

10-Day Weather Forecast

Advertisements
Track Severe Weather on mobile